Time;durP1;ratioP1;P1;durP2;ratioP2;P2;SDS_P1;SDS_P2;PMS_P1;PMS_P2;Temp;Humidity;BMP_temperature;BMP_pressure;BME280_temperature;BME280_humidity;BME280_pressure;Samples;Min_cycle;Max_cycle;Signal;HPM_P1;HPM_P2
2021/05/18 00:01:31;;;;;;;15.88;6.90;;;10.50;99.90;;;;;;5066016;28;20033;-68
2021/05/18 00:03:57;;;;;;;13.07;3.30;;;10.50;99.90;;;;;;5054564;28;20500;-68
2021/05/18 00:06:23;;;;;;;13.57;2.67;;;10.40;99.90;;;;;;5052305;28;20032;-67
2021/05/18 00:11:46;;;;;;;15.15;3.97;;;10.40;99.90;;;;;;5062849;28;20024;-67
2021/05/18 00:14:24;;;;;;;8.85;2.25;;;10.50;99.90;;;;;;5062254;28;20036;-67
2021/05/18 00:16:51;;;;;;;17.08;2.83;;;10.60;99.90;;;;;;5062676;28;20048;-67
2021/05/18 00:19:16;;;;;;;22.55;3.30;;;10.50;99.90;;;;;;5068801;28;20548;-68
2021/05/18 00:21:43;;;;;;;15.30;2.42;;;10.60;99.90;;;;;;5062104;28;20067;-67
2021/05/18 00:24:09;;;;;;;11.32;2.55;;;10.80;99.90;;;;;;5062540;28;20024;-67
2021/05/18 00:26:35;;;;;;;12.85;2.75;;;10.70;99.90;;;;;;5062248;28;20033;-67
2021/05/18 00:29:01;;;;;;;11.23;3.00;;;10.60;99.90;;;;;;5065450;28;20393;-67
2021/05/18 00:31:27;;;;;;;11.13;3.22;;;10.60;99.90;;;;;;5062046;28;20059;-67
2021/05/18 00:33:53;;;;;;;7.80;3.10;;;10.60;99.90;;;;;;5058777;28;20024;-67
2021/05/18 00:36:19;;;;;;;12.48;2.85;;;10.50;99.90;;;;;;5051021;28;20639;-68
2021/05/18 00:38:44;;;;;;;13.75;3.40;;;10.50;99.90;;;;;;5055577;28;20393;-68
2021/05/18 00:41:10;;;;;;;12.85;3.40;;;10.50;99.90;;;;;;5061248;28;20034;-68
2021/05/18 00:43:38;;;;;;;9.98;3.15;;;10.40;99.90;;;;;;5051914;28;20025;-67
2021/05/18 00:46:05;;;;;;;7.90;2.92;;;10.30;99.90;;;;;;5062757;28;20025;-68
2021/05/18 00:48:31;;;;;;;15.85;3.25;;;10.60;99.90;;;;;;5064976;28;20021;-68
2021/05/18 00:51:07;;;;;;;8.88;2.38;;;10.60;99.90;;;;;;5060281;28;20025;-67
2021/05/18 00:53:33;;;;;;;12.23;3.38;;;10.60;99.90;;;;;;5066976;28;20028;-67
2021/05/18 00:58:55;;;;;;;7.32;3.88;;;10.60;99.90;;;;;;5035260;28;20029;-68
2021/05/18 01:01:21;;;;;;;12.25;3.15;;;10.60;99.90;;;;;;5067594;28;20048;-68
2021/05/18 01:03:50;;;;;;;11.15;2.78;;;10.60;99.90;;;;;;5053374;28;20017;-68
2021/05/18 01:06:30;;;;;;;12.48;2.60;;;10.50;99.90;;;;;;5055345;28;20064;-68
2021/05/18 01:09:10;;;;;;;14.43;2.72;;;10.50;99.90;;;;;;5060049;28;20021;-67
2021/05/18 01:11:41;;;;;;;7.45;2.25;;;10.60;99.90;;;;;;5062891;28;20063;-68
2021/05/18 01:14:12;;;;;;;15.45;2.65;;;10.80;99.90;;;;;;5066416;28;20572;-68
2021/05/18 01:16:42;;;;;;;10.55;2.25;;;10.90;99.90;;;;;;5066296;28;20032;-67
2021/05/18 01:19:08;;;;;;;15.80;2.88;;;10.80;99.90;;;;;;5056100;28;20082;-68
2021/05/18 01:21:34;;;;;;;8.05;2.67;;;10.80;99.90;;;;;;5060431;28;20028;-68
2021/05/18 01:24:01;;;;;;;13.48;3.22;;;10.80;99.90;;;;;;5064382;28;20538;-68
2021/05/18 01:26:30;;;;;;;12.70;2.55;;;10.90;99.90;;;;;;5065185;28;20500;-67
2021/05/18 01:28:56;;;;;;;11.63;2.92;;;10.80;99.90;;;;;;5063271;28;20059;-68
2021/05/18 01:31:23;;;;;;;8.70;2.35;;;10.90;99.90;;;;;;5066053;28;20064;-67
2021/05/18 01:33:50;;;;;;;12.50;3.40;;;10.80;99.90;;;;;;5062308;28;20020;-68
2021/05/18 01:36:18;;;;;;;13.75;2.95;;;10.40;99.90;;;;;;5060422;28;20124;-67
2021/05/18 01:44:13;;;;;;;9.70;2.17;;;10.90;99.90;;;;;;5061681;28;20024;-68
2021/05/18 01:46:40;;;;;;;12.70;2.00;;;10.70;99.90;;;;;;5058442;28;20056;-68
2021/05/18 01:49:08;;;;;;;16.77;2.63;;;10.70;99.90;;;;;;5067282;28;20024;-68
2021/05/18 01:51:56;;;;;;;13.80;2.55;;;10.70;99.90;;;;;;5064118;28;20032;-68
2021/05/18 01:54:30;;;;;;;13.77;2.42;;;10.70;99.90;;;;;;5054460;28;20174;-67
2021/05/18 01:59:28;;;;;;;16.52;2.17;;;11.00;99.90;;;;;;5067832;28;20093;-67
2021/05/18 02:01:57;;;;;;;14.07;2.63;;;11.00;99.90;;;;;;5066533;28;20035;-67
2021/05/18 02:04:34;;;;;;;12.30;3.10;;;10.90;99.90;;;;;;5067832;28;20505;-67
2021/05/18 02:07:04;;;;;;;10.00;2.47;;;11.00;99.90;;;;;;5064764;28;20024;-66
2021/05/18 02:09:30;;;;;;;8.88;2.67;;;10.90;99.90;;;;;;5063622;28;20016;-67
2021/05/18 02:11:56;;;;;;;9.80;2.45;;;10.90;99.90;;;;;;5055771;28;20075;-67
2021/05/18 02:14:28;;;;;;;13.45;2.40;;;10.90;99.90;;;;;;5069033;28;20054;-67
2021/05/18 02:17:02;;;;;;;9.98;2.22;;;10.80;99.90;;;;;;5068303;28;20025;-68
2021/05/18 02:27:08;;;;;;;7.80;2.28;;;10.80;99.90;;;;;;5064142;28;20063;-67
2021/05/18 02:29:34;;;;;;;12.95;2.22;;;10.60;99.90;;;;;;5071800;28;20592;-67
2021/05/18 02:32:00;;;;;;;5.55;1.63;;;10.40;99.90;;;;;;5060965;28;20074;-67
2021/05/18 02:34:26;;;;;;;10.73;2.13;;;10.50;99.90;;;;;;5069393;28;20032;-67
2021/05/18 02:36:51;;;;;;;7.30;2.22;;;10.70;99.90;;;;;;5062686;28;20048;-67
2021/05/18 02:39:17;;;;;;;11.95;2.30;;;10.80;99.90;;;;;;5059149;28;20017;-67
2021/05/18 02:41:43;;;;;;;12.65;2.20;;;10.60;99.90;;;;;;5060856;28;20397;-67
2021/05/18 02:44:15;;;;;;;11.35;2.10;;;10.50;99.90;;;;;;5051276;28;20025;-67
2021/05/18 02:49:25;;;;;;;9.57;1.60;;;10.50;99.90;;;;;;5070185;28;20035;-67
2021/05/18 02:51:52;;;;;;;10.07;2.08;;;10.50;99.90;;;;;;5060510;28;20020;-67
2021/05/18 02:54:22;;;;;;;9.25;2.00;;;10.60;99.90;;;;;;5063665;28;20614;-67
2021/05/18 02:56:53;;;;;;;10.38;1.80;;;10.70;99.90;;;;;;5063508;28;20024;-67
2021/05/18 02:59:19;;;;;;;7.50;1.98;;;10.60;99.90;;;;;;5053101;28;20032;-68
2021/05/18 03:01:49;;;;;;;9.95;2.40;;;10.50;99.90;;;;;;5059652;28;20063;-67
2021/05/18 03:04:16;;;;;;;9.45;2.00;;;10.50;99.90;;;;;;5058068;28;20508;-67
2021/05/18 03:06:41;;;;;;;7.18;1.77;;;10.70;99.90;;;;;;5055384;28;20025;-67
2021/05/18 03:09:10;;;;;;;7.50;2.20;;;10.80;99.90;;;;;;5065222;28;20025;-67
2021/05/18 03:11:38;;;;;;;8.65;2.13;;;10.70;99.90;;;;;;5063670;28;20036;-67
2021/05/18 03:14:04;;;;;;;7.97;1.98;;;10.80;99.90;;;;;;5065504;28;20505;-68
2021/05/18 03:16:30;;;;;;;6.82;1.75;;;10.90;99.90;;;;;;5056015;28;20017;-68
2021/05/18 03:18:56;;;;;;;7.20;2.00;;;10.90;99.90;;;;;;5061072;28;20029;-70
2021/05/18 03:21:22;;;;;;;8.68;1.92;;;10.80;99.90;;;;;;5061495;28;20048;-67
2021/05/18 03:23:48;;;;;;;10.70;2.33;;;10.80;99.90;;;;;;5069404;28;20040;-67
2021/05/18 03:26:13;;;;;;;11.32;1.92;;;10.70;99.90;;;;;;5059433;28;20033;-67
2021/05/18 03:28:39;;;;;;;7.78;2.10;;;10.60;99.90;;;;;;5062412;28;20020;-67
2021/05/18 03:36:14;;;;;;;6.80;1.95;;;10.80;99.90;;;;;;5060192;28;20075;-66
2021/05/18 03:38:43;;;;;;;8.77;2.50;;;10.40;99.90;;;;;;5061694;28;20025;-66
2021/05/18 03:41:49;;;;;;;12.68;2.50;;;10.40;99.90;;;;;;5063109;28;20045;-66
2021/05/18 03:44:48;;;;;;;10.10;2.38;;;10.50;99.90;;;;;;5058057;28;20025;-66
2021/05/18 03:52:19;;;;;;;7.55;2.15;;;10.60;99.90;;;;;;5054222;28;20086;-66
2021/05/18 04:03:14;;;;;;;10.40;2.17;;;10.40;99.90;;;;;;5000896;28;20538;-66
2021/05/18 04:53:26;;;;;;;11.27;2.10;;;10.60;99.90;;;;;;5052109;28;20013;-66
2021/05/18 05:01:41;;;;;;;7.63;2.03;;;10.40;99.90;;;;;;5053103;28;20047;-66
2021/05/18 05:06:52;;;;;;;10.10;1.67;;;10.20;99.90;;;;;;5054797;28;20093;-67
2021/05/18 05:09:27;;;;;;;14.85;2.38;;;10.40;99.90;;;;;;5066170;28;20028;-68
2021/05/18 05:14:36;;;;;;;12.32;2.28;;;10.20;99.90;;;;;;5068065;28;20028;-67
2021/05/18 05:17:02;;;;;;;12.38;1.80;;;10.10;99.90;;;;;;5054722;28;20037;-64
2021/05/18 05:19:29;;;;;;;6.88;2.22;;;11.00;99.90;;;;;;5062746;28;20021;-65
2021/05/18 05:21:56;;;;;;;6.70;2.38;;;10.90;99.90;;;;;;5061149;28;20040;-64
2021/05/18 05:24:22;;;;;;;11.05;2.30;;;10.60;99.90;;;;;;5068977;28;20070;-64
2021/05/18 05:26:48;;;;;;;6.68;1.88;;;10.80;99.90;;;;;;5057364;28;20123;-65
2021/05/18 05:29:18;;;;;;;5.32;1.67;;;10.80;99.90;;;;;;5067229;28;20131;-64
2021/05/18 05:31:44;;;;;;;7.35;2.28;;;10.80;99.90;;;;;;5061400;28;20017;-64
2021/05/18 05:34:10;;;;;;;10.57;2.10;;;10.70;99.90;;;;;;5059623;28;20017;-65
2021/05/18 05:36:37;;;;;;;7.95;2.30;;;10.70;99.90;;;;;;5052686;28;20041;-65
2021/05/18 05:39:10;;;;;;;9.77;2.58;;;10.40;99.90;;;;;;5068656;28;20020;-64
2021/05/18 05:41:36;;;;;;;14.68;2.30;;;10.30;99.90;;;;;;5058156;28;20543;-65
2021/05/18 05:44:04;;;;;;;7.53;2.40;;;10.50;99.90;;;;;;5056937;28;20029;-64
2021/05/18 05:46:30;;;;;;;10.10;2.53;;;10.60;99.90;;;;;;5067810;28;20066;-64
2021/05/18 05:48:55;;;;;;;12.38;2.55;;;10.60;99.90;;;;;;5070085;28;20118;-64
2021/05/18 05:51:23;;;;;;;16.25;2.50;;;10.60;99.90;;;;;;5068039;28;20028;-64
2021/05/18 05:53:50;;;;;;;9.70;2.30;;;10.90;99.90;;;;;;5060498;28;20032;-64
2021/05/18 05:56:16;;;;;;;8.77;2.30;;;11.10;99.90;;;;;;5059020;28;20885;-65
2021/05/18 05:58:42;;;;;;;8.82;1.90;;;11.00;99.90;;;;;;5070300;28;20096;-64
2021/05/18 06:01:08;;;;;;;9.35;2.33;;;11.10;99.90;;;;;;5068835;28;20041;-64
2021/05/18 06:03:34;;;;;;;11.43;2.50;;;11.30;99.90;;;;;;5068784;28;20032;-64
2021/05/18 06:06:00;;;;;;;7.72;2.13;;;11.40;99.90;;;;;;5067818;28;20035;-64
2021/05/18 06:08:26;;;;;;;13.65;2.42;;;11.10;99.90;;;;;;5070623;28;20052;-64
2021/05/18 06:11:02;;;;;;;8.90;2.25;;;11.40;99.90;;;;;;5068759;28;20025;-64
2021/05/18 06:41:11;;;;;;;17.40;2.97;;;12.00;99.90;;;;;;5060897;28;20551;-63
2021/05/18 06:48:49;;;;;;;21.55;2.95;;;12.40;99.90;;;;;;5065490;28;20658;-65
2021/05/18 06:51:14;;;;;;;26.55;2.95;;;12.40;99.90;;;;;;5059736;28;20075;-64
2021/05/18 06:53:40;;;;;;;16.42;3.17;;;12.50;99.90;;;;;;5058206;28;20025;-66
2021/05/18 06:56:06;;;;;;;22.65;3.42;;;12.60;99.90;;;;;;5057845;28;20635;-65
2021/05/18 07:01:21;;;;;;;14.93;2.88;;;12.50;99.90;;;;;;5012277;28;20052;-64
2021/05/18 07:03:51;;;;;;;25.10;3.28;;;12.60;99.90;;;;;;5066748;28;20370;-63
2021/05/18 07:06:28;;;;;;;17.35;3.40;;;12.70;99.90;;;;;;5065415;28;20075;-64
2021/05/18 07:08:56;;;;;;;15.98;3.17;;;12.70;99.90;;;;;;5063627;28;20124;-63
2021/05/18 07:11:23;;;;;;;17.67;3.25;;;12.70;99.90;;;;;;5057089;28;20622;-64
2021/05/18 07:13:49;;;;;;;17.85;3.38;;;12.70;99.90;;;;;;5067395;28;20056;-64
2021/05/18 07:16:14;;;;;;;15.77;3.08;;;12.70;99.90;;;;;;5069485;28;20066;-63
2021/05/18 07:18:40;;;;;;;17.55;3.05;;;12.80;99.90;;;;;;5069979;28;20580;-63
2021/05/18 07:21:06;;;;;;;12.75;2.60;;;12.80;99.90;;;;;;5063065;28;20094;-64
2021/05/18 07:23:33;;;;;;;13.93;3.00;;;12.80;99.90;;;;;;5060200;28;20078;-63
2021/05/18 07:25:58;;;;;;;17.52;3.30;;;12.70;99.90;;;;;;5054539;28;20029;-64
2021/05/18 07:28:29;;;;;;;16.40;3.40;;;12.80;99.90;;;;;;5054480;28;20028;-65
2021/05/18 07:30:55;;;;;;;15.15;3.22;;;12.70;99.90;;;;;;5060021;28;20029;-66
2021/05/18 07:33:21;;;;;;;16.48;2.67;;;12.70;99.90;;;;;;5058544;28;20094;-64
2021/05/18 07:35:47;;;;;;;16.10;2.78;;;12.90;99.90;;;;;;5056382;28;20048;-63
2021/05/18 07:38:12;;;;;;;16.38;2.75;;;13.00;99.90;;;;;;5062401;28;20024;-63
2021/05/18 07:40:38;;;;;;;22.42;3.22;;;13.20;99.90;;;;;;5063993;28;20040;-63
2021/05/18 07:43:05;;;;;;;16.25;3.00;;;13.30;99.90;;;;;;5060938;28;20108;-63
2021/05/18 07:45:31;;;;;;;23.13;4.97;;;13.30;99.90;;;;;;5068076;28;20039;-64
2021/05/18 07:48:04;;;;;;;25.63;4.80;;;13.40;99.90;;;;;;5062226;28;20090;-64
2021/05/18 07:50:47;;;;;;;14.65;3.00;;;13.20;99.90;;;;;;5062813;28;20043;-64
2021/05/18 08:06:55;;;;;;;21.05;3.88;;;13.60;99.90;;;;;;5057440;28;20094;-63
2021/05/18 08:09:22;;;;;;;14.63;3.42;;;13.70;99.90;;;;;;5063220;28;20131;-63
2021/05/18 08:11:48;;;;;;;27.73;4.57;;;13.60;99.90;;;;;;5059004;28;20032;-63
2021/05/18 08:14:15;;;;;;;18.08;3.50;;;13.90;99.90;;;;;;5067337;28;20028;-63
2021/05/18 08:17:12;;;;;;;11.55;2.63;;;13.90;99.90;;;;;;5056045;28;20167;-63
2021/05/18 08:58:57;;;;;;;13.70;2.35;;;14.90;99.90;;;;;;5055480;28;20274;-66
2021/05/18 09:42:12;;;;;;;11.50;2.10;;;15.60;99.90;;;;;;5058021;28;20051;-69
2021/05/18 10:36:10;;;;;;;9.30;2.08;;;17.90;99.90;;;;;;5066762;28;20048;-64
2021/05/18 10:38:50;;;;;;;5.20;1.42;;;18.00;99.90;;;;;;5064071;28;20024;-64
2021/05/18 10:41:22;;;;;;;4.95;1.23;;;17.80;99.90;;;;;;5068103;28;20109;-64
2021/05/18 10:44:01;;;;;;;5.10;1.55;;;18.10;99.90;;;;;;5069473;28;20021;-64
2021/05/18 10:46:32;;;;;;;3.22;1.08;;;18.20;99.90;;;;;;5066499;28;20122;-64
2021/05/18 10:49:00;;;;;;;3.78;1.30;;;17.70;99.90;;;;;;5059925;28;20019;-64
2021/05/18 10:51:36;;;;;;;5.00;1.23;;;17.40;99.90;;;;;;5061516;28;20016;-64
2021/05/18 10:54:11;;;;;;;4.45;1.10;;;17.80;99.90;;;;;;5061453;28;20024;-65
2021/05/18 10:57:02;;;;;;;3.47;1.02;;;18.00;99.90;;;;;;5039435;28;20476;-64
2021/05/18 10:59:42;;;;;;;5.55;1.33;;;18.30;99.90;;;;;;5054934;28;20037;-64
2021/05/18 11:02:17;;;;;;;3.38;1.17;;;18.40;99.80;;;;;;5057945;28;20041;-64
2021/05/18 11:04:44;;;;;;;3.83;1.42;;;18.50;99.90;;;;;;5057947;28;20120;-64
2021/05/18 11:07:11;;;;;;;2.65;0.90;;;18.80;99.90;;;;;;5055715;28;20021;-64
2021/05/18 11:09:39;;;;;;;2.03;1.05;;;18.80;99.90;;;;;;5061813;28;20421;-64
2021/05/18 11:12:15;;;;;;;3.97;1.00;;;18.80;99.50;;;;;;5063443;28;20024;-64
2021/05/18 11:15:06;;;;;;;4.15;1.10;;;18.70;98.40;;;;;;5069725;28;20035;-64
2021/05/18 11:17:34;;;;;;;2.95;1.20;;;19.30;97.60;;;;;;5060973;28;20524;-64
2021/05/18 11:25:34;;;;;;;3.38;1.10;;;18.80;97.80;;;;;;5057818;28;20059;-64
2021/05/18 11:28:13;;;;;;;4.90;1.30;;;19.40;97.10;;;;;;5061805;28;20021;-64
2021/05/18 11:30:40;;;;;;;8.13;1.08;;;19.50;96.80;;;;;;5064470;28;20047;-64
2021/05/18 11:33:06;;;;;;;3.97;0.95;;;19.80;97.00;;;;;;5058980;28;20031;-65
2021/05/18 11:35:33;;;;;;;2.70;1.08;;;19.40;95.90;;;;;;5066335;28;20814;-65
2021/05/18 11:38:04;;;;;;;11.05;1.40;;;19.50;96.20;;;;;;5055889;28;20366;-68
2021/05/18 11:40:41;;;;;;;3.38;1.33;;;18.70;96.00;;;;;;5064561;28;20056;-68
2021/05/18 11:43:15;;;;;;;4.47;1.13;;;18.90;97.50;;;;;;5061729;28;20486;-68
2021/05/18 11:45:41;;;;;;;4.72;1.23;;;19.80;97.60;;;;;;5046744;28;20062;-71
2021/05/18 11:48:16;;;;;;;3.83;1.15;;;19.30;95.40;;;;;;5041455;28;20040;-65
2021/05/18 11:50:42;;;;;;;2.83;1.08;;;19.50;96.70;;;;;;5055201;28;20104;-65
2021/05/18 11:53:08;;;;;;;4.72;1.10;;;20.10;95.30;;;;;;5059342;28;20028;-65
2021/05/18 11:55:36;;;;;;;4.07;0.85;;;19.70;97.00;;;;;;5062297;28;20021;-68
2021/05/18 11:58:02;;;;;;;3.85;1.08;;;20.60;96.70;;;;;;5060827;28;20051;-70
2021/05/18 12:00:33;;;;;;;6.57;0.80;;;20.90;95.10;;;;;;5057419;28;20045;-68
2021/05/18 12:03:02;;;;;;;4.80;1.00;;;21.10;96.70;;;;;;5040027;28;20020;-69
2021/05/18 12:05:28;;;;;;;4.53;1.40;;;21.00;94.60;;;;;;5061466;28;20134;-70
2021/05/18 12:07:54;;;;;;;6.50;0.90;;;20.80;96.00;;;;;;5063382;28;20052;-71
2021/05/18 12:10:35;;;;;;;2.20;0.88;;;20.60;95.20;;;;;;5056195;28;20024;-66
2021/05/18 12:13:05;;;;;;;7.78;1.00;;;21.20;95.10;;;;;;5055652;28;20060;-66
2021/05/18 12:15:31;;;;;;;5.93;1.00;;;21.00;94.30;;;;;;5060236;28;20044;-70
2021/05/18 12:17:57;;;;;;;3.33;1.23;;;21.40;94.90;;;;;;5061007;28;20051;-71
2021/05/18 12:20:23;;;;;;;2.88;0.90;;;21.40;95.90;;;;;;5057112;28;20028;-70
2021/05/18 12:22:50;;;;;;;4.88;1.13;;;21.50;94.60;;;;;;5056622;28;20025;-72
2021/05/18 12:25:30;;;;;;;2.53;1.20;;;21.30;93.80;;;;;;5057732;28;20020;-71
2021/05/18 12:27:57;;;;;;;3.25;1.00;;;20.50;93.30;;;;;;5063881;28;20024;-71
2021/05/18 12:30:34;;;;;;;2.35;1.00;;;20.20;94.20;;;;;;5060221;28;20088;-71
2021/05/18 12:32:59;;;;;;;4.60;1.10;;;20.40;94.20;;;;;;5063379;28;20028;-71
2021/05/18 12:35:25;;;;;;;3.58;1.20;;;21.10;94.70;;;;;;5068884;28;20044;-70
2021/05/18 12:37:53;;;;;;;8.18;1.75;;;21.90;96.10;;;;;;5064446;28;20036;-66
2021/05/18 12:40:33;;;;;;;4.03;1.08;;;21.60;97.30;;;;;;5064806;28;20091;-66
2021/05/18 12:43:11;;;;;;;4.93;1.40;;;21.70;96.80;;;;;;5060691;28;20017;-65
2021/05/18 12:45:37;;;;;;;7.22;1.85;;;21.60;96.40;;;;;;5061461;28;20067;-65
2021/05/18 12:48:04;;;;;;;9.60;1.23;;;21.60;95.90;;;;;;5059501;28;20053;-69
2021/05/18 12:50:43;;;;;;;5.07;1.42;;;21.80;97.40;;;;;;5060529;28;20035;-67
2021/05/18 12:53:22;;;;;;;3.60;1.40;;;21.70;96.60;;;;;;5066912;28;20052;-69
2021/05/18 12:55:48;;;;;;;7.28;1.48;;;21.60;95.40;;;;;;5058644;28;20048;-70
2021/05/18 12:58:27;;;;;;;3.90;1.00;;;21.40;95.90;;;;;;5058845;28;20033;-65
2021/05/18 13:01:10;;;;;;;3.17;1.15;;;21.30;96.40;;;;;;5063732;28;20587;-66
2021/05/18 13:03:38;;;;;;;2.70;1.05;;;21.60;95.80;;;;;;5065445;28;20108;-66
2021/05/18 13:06:05;;;;;;;4.40;1.27;;;21.40;97.10;;;;;;5061448;28;20083;-66
2021/05/18 13:08:33;;;;;;;5.95;1.20;;;21.00;95.90;;;;;;5061120;28;20051;-71
2021/05/18 13:13:29;;;;;;;8.50;1.60;;;21.30;97.10;;;;;;5063555;28;20037;-67
2021/05/18 13:16:15;;;;;;;8.13;1.48;;;21.00;98.40;;;;;;5061445;28;20664;-71
2021/05/18 13:18:51;;;;;;;5.15;1.38;;;21.10;98.60;;;;;;5062199;28;20095;-67
2021/05/18 13:21:23;;;;;;;3.58;1.23;;;21.20;98.00;;;;;;5060034;28;20055;-69
2021/05/18 13:26:31;;;;;;;4.55;1.35;;;20.80;99.00;;;;;;5065460;28;20032;-71
2021/05/18 13:29:08;;;;;;;6.60;1.30;;;20.70;99.90;;;;;;5061107;28;20029;-69
2021/05/18 13:31:36;;;;;;;7.80;1.60;;;20.50;99.90;;;;;;5062900;28;20028;-71
2021/05/18 13:34:02;;;;;;;7.32;1.58;;;20.20;99.90;;;;;;5066587;28;20601;-71
2021/05/18 13:36:33;;;;;;;4.97;1.45;;;20.20;99.90;;;;;;5063940;28;20054;-71
2021/05/18 13:39:05;;;;;;;17.80;1.80;;;20.10;99.90;;;;;;5062381;28;20025;-70
2021/05/18 13:41:30;;;;;;;7.90;1.77;;;19.70;99.90;;;;;;5044896;28;20063;-68
2021/05/18 13:43:56;;;;;;;9.80;2.20;;;20.20;99.90;;;;;;5058577;28;20096;-70
2021/05/18 13:46:22;;;;;;;13.38;2.17;;;20.20;99.90;;;;;;5059524;28;20043;-69
2021/05/18 13:48:48;;;;;;;10.88;1.88;;;20.00;99.90;;;;;;5061004;28;20405;-68
2021/05/18 13:51:14;;;;;;;9.23;1.50;;;20.20;99.90;;;;;;5063884;28;20515;-66
2021/05/18 13:53:41;;;;;;;6.45;1.80;;;20.50;99.90;;;;;;5062760;28;20145;-65
2021/05/18 13:56:07;;;;;;;11.20;2.35;;;20.90;99.90;;;;;;5058614;28;20048;-70
2021/05/18 13:58:33;;;;;;;11.93;1.77;;;20.90;99.90;;;;;;5065056;28;20035;-65
2021/05/18 14:00:58;;;;;;;7.97;1.73;;;20.50;99.90;;;;;;5057211;28;20045;-69
2021/05/18 14:03:24;;;;;;;8.50;2.05;;;20.40;99.90;;;;;;5059052;28;20038;-65
2021/05/18 14:05:50;;;;;;;9.55;1.50;;;20.30;99.90;;;;;;5062485;28;20392;-64
2021/05/18 14:08:35;;;;;;;9.93;1.70;;;20.20;99.90;;;;;;5063124;28;20116;-64
2021/05/18 14:11:06;;;;;;;3.50;1.05;;;20.20;99.90;;;;;;5058934;28;20021;-64
2021/05/18 14:13:37;;;;;;;11.63;1.75;;;21.20;99.90;;;;;;5058659;28;20036;-64
2021/05/18 14:16:04;;;;;;;4.53;1.35;;;21.50;99.80;;;;;;5067206;28;20052;-64
2021/05/18 14:18:31;;;;;;;8.95;1.38;;;21.30;99.00;;;;;;5061913;28;20162;-64
2021/05/18 14:20:57;;;;;;;8.48;1.40;;;21.80;97.50;;;;;;5067719;28;20041;-67
2021/05/18 14:23:25;;;;;;;18.75;1.50;;;22.20;97.80;;;;;;5041359;28;20033;-65
2021/05/18 14:25:52;;;;;;;21.05;2.65;;;22.40;99.30;;;;;;5060611;28;20602;-65
2021/05/18 14:28:18;;;;;;;24.83;2.47;;;22.10;99.90;;;;;;5059518;28;20056;-66
2021/05/18 14:30:44;;;;;;;16.80;2.60;;;21.70;99.90;;;;;;5053742;28;20049;-64
2021/05/18 14:33:10;;;;;;;19.75;3.05;;;22.00;99.90;;;;;;5062636;28;20025;-64
2021/05/18 14:35:36;;;;;;;20.08;2.70;;;22.20;99.90;;;;;;5063713;28;20517;-64
2021/05/18 14:38:13;;;;;;;17.67;2.67;;;20.80;99.90;;;;;;5058385;28;20517;-64
2021/05/18 14:45:42;;;;;;;9.02;2.22;;;21.60;99.90;;;;;;5066963;28;20029;-64
2021/05/18 14:56:08;;;;;;;9.32;2.40;;;21.20;99.90;;;;;;5057156;28;20032;-67
2021/05/18 14:58:34;;;;;;;5.50;2.17;;;20.90;99.90;;;;;;5070667;28;20025;-65
2021/05/18 15:01:00;;;;;;;8.00;2.13;;;20.20;99.90;;;;;;5063476;28;20032;-67
2021/05/18 15:03:30;;;;;;;5.13;1.70;;;18.90;99.90;;;;;;5057273;28;20056;-64
2021/05/18 15:05:57;;;;;;;8.50;1.75;;;18.40;99.90;;;;;;5059249;28;20021;-64
2021/05/18 15:08:23;;;;;;;10.40;2.33;;;18.30;99.90;;;;;;5063887;28;20088;-64
2021/05/18 15:10:52;;;;;;;4.72;1.67;;;18.10;99.90;;;;;;5060524;28;20030;-67
2021/05/18 15:13:18;;;;;;;8.88;2.00;;;17.90;99.90;;;;;;5058960;28;20232;-64
2021/05/18 15:15:43;;;;;;;4.38;1.75;;;17.90;99.90;;;;;;5064746;28;20020;-64
2021/05/18 15:18:10;;;;;;;6.15;1.55;;;17.70;99.90;;;;;;5061440;28;20032;-64
2021/05/18 15:20:36;;;;;;;4.53;1.45;;;17.40;99.90;;;;;;5054849;28;20024;-65
2021/05/18 15:23:02;;;;;;;4.95;1.65;;;17.50;99.90;;;;;;5056453;28;20029;-64
2021/05/18 15:25:28;;;;;;;5.20;1.95;;;17.40;99.90;;;;;;5061603;28;20055;-64
2021/05/18 15:27:53;;;;;;;9.85;1.95;;;17.40;99.90;;;;;;5056788;28;20036;-64
2021/05/18 15:30:19;;;;;;;8.48;1.67;;;17.50;99.90;;;;;;5061692;28;20425;-65
2021/05/18 15:32:45;;;;;;;5.65;1.77;;;17.30;99.90;;;;;;5056172;28;20114;-66
2021/05/18 15:35:11;;;;;;;7.32;1.95;;;17.10;99.90;;;;;;5062414;28;20057;-64
2021/05/18 15:37:37;;;;;;;8.73;2.00;;;17.10;99.90;;;;;;5054271;28;20032;-65
2021/05/18 15:40:04;;;;;;;4.88;1.40;;;17.00;99.90;;;;;;5061158;28;20036;-66
2021/05/18 15:42:29;;;;;;;6.80;1.80;;;17.00;99.90;;;;;;5055076;28;20484;-67
2021/05/18 15:44:55;;;;;;;6.50;1.42;;;17.00;99.90;;;;;;5062782;28;20025;-66
2021/05/18 15:47:22;;;;;;;5.50;1.40;;;16.80;99.90;;;;;;5056395;28;20020;-64
2021/05/18 15:49:48;;;;;;;5.00;1.70;;;16.90;99.90;;;;;;5060981;28;20465;-65
2021/05/18 15:52:14;;;;;;;5.53;1.30;;;16.90;99.90;;;;;;5058898;28;20042;-65
2021/05/18 15:54:40;;;;;;;4.78;1.30;;;16.70;99.90;;;;;;5062915;28;20031;-65
2021/05/18 15:57:06;;;;;;;5.75;1.05;;;16.60;99.90;;;;;;5041419;28;20021;-63
2021/05/18 15:59:31;;;;;;;3.05;1.30;;;16.40;99.90;;;;;;5059656;28;20021;-63
2021/05/18 16:01:57;;;;;;;4.05;1.58;;;16.30;99.90;;;;;;5056082;28;20083;-64
2021/05/18 16:04:23;;;;;;;6.20;1.35;;;16.20;99.90;;;;;;5058653;28;20695;-63
2021/05/18 16:06:49;;;;;;;5.50;1.83;;;16.00;99.90;;;;;;5064004;28;20033;-63
2021/05/18 16:09:15;;;;;;;5.13;1.33;;;15.80;99.90;;;;;;5064831;28;20019;-61
2021/05/18 16:11:42;;;;;;;4.95;1.33;;;15.80;99.90;;;;;;5060079;28;20028;-62
2021/05/18 16:14:09;;;;;;;4.50;1.65;;;15.90;99.90;;;;;;5063382;28;20020;-62
2021/05/18 16:16:36;;;;;;;5.07;1.70;;;15.90;99.90;;;;;;5061930;28;20060;-61
2021/05/18 16:19:02;;;;;;;3.83;1.45;;;15.70;99.90;;;;;;5065578;28;20025;-61
2021/05/18 16:21:29;;;;;;;5.40;1.55;;;15.60;99.90;;;;;;5057397;28;20075;-63
2021/05/18 16:23:56;;;;;;;5.18;1.70;;;15.10;99.90;;;;;;5054606;28;20032;-62
2021/05/18 16:26:25;;;;;;;2.88;1.33;;;15.10;99.90;;;;;;5055785;28;20036;-62
2021/05/18 16:28:52;;;;;;;7.72;1.70;;;14.90;99.90;;;;;;5056035;28;20059;-63
2021/05/18 16:31:19;;;;;;;5.70;1.58;;;14.90;99.90;;;;;;5062787;28;20043;-62
2021/05/18 16:33:45;;;;;;;4.13;1.42;;;14.70;99.90;;;;;;5054216;28;20021;-63
2021/05/18 16:36:16;;;;;;;6.13;1.70;;;14.70;99.90;;;;;;5048853;28;20047;-62
2021/05/18 16:38:42;;;;;;;4.80;1.52;;;14.50;99.90;;;;;;5063063;28;20071;-62
2021/05/18 16:41:09;;;;;;;5.03;1.92;;;14.20;99.90;;;;;;5058991;28;20600;-62
2021/05/18 16:43:35;;;;;;;3.25;1.70;;;14.20;99.90;;;;;;5066306;28;20024;-62
2021/05/18 16:46:03;;;;;;;8.18;1.90;;;14.20;99.90;;;;;;5061197;28;20021;-62
2021/05/18 16:48:29;;;;;;;5.22;2.08;;;14.10;99.90;;;;;;5056010;28;20449;-61
2021/05/18 16:51:01;;;;;;;4.85;2.35;;;13.60;99.90;;;;;;5058614;28;20059;-62
2021/05/18 16:53:27;;;;;;;5.95;1.98;;;13.60;99.90;;;;;;5063973;28;20036;-61
2021/05/18 16:55:53;;;;;;;3.78;1.98;;;13.60;99.90;;;;;;5058201;28;20543;-61
2021/05/18 16:58:19;;;;;;;3.90;1.73;;;13.50;99.90;;;;;;5059051;28;20024;-61
2021/05/18 17:00:45;;;;;;;4.75;1.92;;;13.60;99.90;;;;;;5053320;28;20118;-64
2021/05/18 17:03:11;;;;;;;5.78;1.77;;;13.70;99.90;;;;;;5054194;28;20021;-63
2021/05/18 17:05:37;;;;;;;6.53;1.58;;;13.30;99.90;;;;;;5060885;28;20091;-61
2021/05/18 17:08:03;;;;;;;4.68;1.70;;;13.20;99.90;;;;;;5052955;28;20508;-62
2021/05/18 17:10:35;;;;;;;5.80;1.42;;;13.30;99.90;;;;;;5054598;28;20114;-61
2021/05/18 17:13:01;;;;;;;4.05;1.80;;;13.40;99.90;;;;;;5055427;28;20422;-61
2021/05/18 17:15:28;;;;;;;5.28;1.77;;;13.40;99.90;;;;;;5053531;28;20025;-61
2021/05/18 17:17:58;;;;;;;9.23;2.10;;;13.60;99.90;;;;;;5056795;28;20047;-62
2021/05/18 17:20:26;;;;;;;6.25;1.65;;;13.60;99.90;;;;;;5064504;28;20509;-62
2021/05/18 17:22:53;;;;;;;2.95;1.42;;;13.40;99.90;;;;;;5064437;28;20382;-62
2021/05/18 17:25:18;;;;;;;3.30;1.52;;;13.10;99.90;;;;;;5060321;28;20044;-63
2021/05/18 17:27:44;;;;;;;4.57;1.70;;;13.20;99.90;;;;;;5057876;28;20135;-61
2021/05/18 17:30:24;;;;;;;5.15;1.80;;;13.30;99.90;;;;;;5061094;28;20043;-64
2021/05/18 17:32:49;;;;;;;7.75;1.80;;;13.30;99.90;;;;;;5062260;28;20031;-61
2021/05/18 17:35:15;;;;;;;3.90;1.40;;;13.30;99.90;;;;;;5070682;28;20037;-61
2021/05/18 17:37:42;;;;;;;7.40;2.22;;;13.30;99.90;;;;;;5060856;28;20025;-63
2021/05/18 17:40:10;;;;;;;3.65;1.65;;;13.10;99.90;;;;;;5071999;28;20040;-62
2021/05/18 17:42:36;;;;;;;4.35;2.13;;;13.10;99.90;;;;;;5062725;28;20028;-63
2021/05/18 17:45:05;;;;;;;6.07;2.13;;;13.20;99.90;;;;;;5071476;28;20035;-62
2021/05/18 17:47:34;;;;;;;6.50;1.90;;;13.30;99.90;;;;;;5066924;28;20028;-62
2021/05/18 17:50:00;;;;;;;7.07;2.20;;;13.30;99.90;;;;;;5070097;28;20035;-62
2021/05/18 17:52:27;;;;;;;6.10;1.90;;;13.40;99.90;;;;;;5065842;28;20029;-61
2021/05/18 17:54:53;;;;;;;4.68;1.80;;;13.30;99.90;;;;;;5071599;28;20534;-61
2021/05/18 17:57:19;;;;;;;7.38;1.80;;;13.20;99.90;;;;;;5066732;28;20523;-61